createdAt,value
2018-11-06T00:01:34.765Z,10.72
2018-11-06T00:04:03.384Z,10.58
2018-11-06T00:06:31.993Z,10.53
2018-11-06T00:09:00.160Z,10.39
2018-11-06T00:11:28.354Z,10.40
2018-11-06T00:13:56.522Z,10.42
2018-11-06T00:16:24.696Z,10.57
2018-11-06T00:18:52.890Z,10.60
2018-11-06T00:21:21.024Z,10.41
2018-11-06T00:23:49.206Z,10.39
2018-11-06T00:26:17.374Z,10.31
2018-11-06T00:28:45.642Z,10.31
2018-11-06T00:31:13.744Z,10.31
2018-11-06T00:33:42.010Z,10.51
2018-11-06T00:36:10.184Z,10.46
2018-11-06T00:38:38.344Z,10.35
2018-11-06T00:41:06.520Z,10.45
2018-11-06T00:43:34.658Z,10.44
2018-11-06T00:46:02.778Z,10.31
2018-11-06T00:48:30.939Z,10.21
2018-11-06T00:50:59.149Z,10.22
2018-11-06T00:53:27.363Z,10.12
2018-11-06T00:55:55.548Z,10.15
2018-11-06T00:58:23.701Z,10.16
2018-11-06T01:00:51.981Z,10.08
2018-11-06T01:03:20.265Z,10.00
2018-11-06T01:05:48.406Z,9.97
2018-11-06T01:08:16.512Z,9.88
2018-11-06T01:10:44.686Z,9.87
2018-11-06T01:13:12.833Z,9.93
2018-11-06T01:15:41.037Z,9.93
2018-11-06T01:18:09.240Z,9.84
2018-11-06T01:20:37.406Z,10.13
2018-11-06T01:23:05.563Z,10.00
2018-11-06T01:25:33.676Z,9.97
2018-11-06T01:28:01.884Z,10.04
2018-11-06T01:30:30.145Z,10.00
2018-11-06T01:32:58.259Z,10.01
2018-11-06T01:35:26.401Z,9.92
2018-11-06T01:37:54.655Z,9.98
2018-11-06T01:40:22.933Z,9.84
2018-11-06T01:42:51.125Z,9.78
2018-11-06T01:45:20.008Z,9.90
2018-11-06T01:47:48.157Z,9.79
2018-11-06T01:50:17.443Z,9.82
2018-11-06T01:52:46.525Z,9.83
2018-11-06T01:55:14.657Z,9.81
2018-11-06T01:57:42.883Z,9.95
2018-11-06T02:00:14.467Z,9.91
2018-11-06T02:02:42.765Z,9.98
2018-11-06T02:05:12.663Z,9.85
2018-11-06T02:07:41.489Z,9.92
2018-11-06T02:10:11.139Z,9.95
2018-11-06T02:12:39.336Z,9.92
2018-11-06T02:15:08.137Z,9.92
2018-11-06T02:17:36.483Z,9.97
2018-11-06T02:20:05.128Z,10.05
2018-11-06T02:22:33.244Z,9.93
2018-11-06T02:25:01.416Z,9.99
2018-11-06T02:27:29.769Z,10.06
2018-11-06T02:29:57.917Z,10.02
2018-11-06T02:32:26.129Z,10.14
2018-11-06T02:34:54.239Z,9.93
2018-11-06T02:37:22.533Z,9.89
2018-11-06T02:39:50.686Z,9.83
2018-11-06T02:42:18.833Z,9.86
2018-11-06T02:44:47.055Z,9.83
2018-11-06T02:47:15.189Z,9.77
2018-11-06T02:49:43.350Z,9.71
2018-11-06T02:52:11.525Z,9.71
2018-11-06T02:54:39.705Z,9.64
2018-11-06T02:57:07.942Z,9.69
2018-11-06T02:59:36.185Z,9.70
2018-11-06T03:02:04.568Z,9.59
2018-11-06T03:04:32.673Z,9.66
2018-11-06T03:07:00.815Z,9.57
2018-11-06T03:09:28.987Z,9.50
2018-11-06T03:11:57.174Z,9.60
2018-11-06T03:14:25.344Z,9.65
2018-11-06T03:16:53.488Z,9.64
2018-11-06T03:19:21.624Z,9.64
2018-11-06T03:21:49.789Z,9.52
2018-11-06T03:24:17.935Z,9.51
2018-11-06T03:26:46.126Z,9.44
2018-11-06T03:29:14.287Z,9.54
2018-11-06T03:31:42.472Z,9.56
2018-11-06T03:34:10.679Z,9.54
2018-11-06T03:36:38.849Z,9.46
2018-11-06T03:39:08.325Z,9.30
2018-11-06T03:41:36.503Z,9.48
2018-11-06T03:44:04.701Z,9.45
2018-11-06T03:46:32.883Z,9.39
2018-11-06T03:49:01.156Z,9.27
2018-11-06T03:51:29.563Z,9.23
2018-11-06T03:53:58.537Z,9.24
2018-11-06T03:56:26.669Z,9.20
2018-11-06T03:58:54.828Z,9.23
2018-11-06T04:01:22.974Z,9.26
2018-11-06T04:03:51.315Z,9.30
2018-11-06T04:06:19.496Z,9.31
2018-11-06T04:08:47.617Z,9.27
2018-11-06T04:11:15.761Z,9.22
2018-11-06T04:13:43.847Z,9.27
2018-11-06T04:16:12.015Z,9.17
2018-11-06T04:18:40.187Z,9.28
2018-11-06T04:21:08.451Z,9.26
2018-11-06T04:23:36.609Z,9.25
2018-11-06T04:26:05.089Z,9.25
2018-11-06T04:28:33.267Z,9.14
2018-11-06T04:31:01.447Z,9.18
2018-11-06T04:33:29.628Z,9.12
2018-11-06T04:35:57.803Z,9.09
2018-11-06T04:38:25.992Z,9.07
2018-11-06T04:40:54.152Z,9.12
2018-11-06T04:43:22.506Z,9.16
2018-11-06T04:45:50.659Z,9.09
2018-11-06T04:48:18.860Z,9.11
2018-11-06T04:50:47.069Z,8.94
2018-11-06T04:53:15.259Z,8.96
2018-11-06T04:55:43.452Z,8.91
2018-11-06T04:58:11.590Z,8.78
2018-11-06T05:00:39.726Z,8.85
2018-11-06T05:03:07.933Z,8.98
2018-11-06T05:05:36.188Z,8.96
2018-11-06T05:08:04.393Z,9.05
2018-11-06T05:10:32.550Z,8.88
2018-11-06T05:13:00.704Z,8.87
2018-11-06T05:15:28.807Z,8.84
2018-11-06T05:17:56.954Z,8.92
2018-11-06T05:20:25.125Z,8.94
2018-11-06T05:22:53.307Z,8.94
2018-11-06T05:25:21.523Z,8.94
2018-11-06T05:27:49.703Z,9.00
2018-11-06T05:30:17.903Z,8.99
2018-11-06T05:32:46.118Z,8.97
2018-11-06T05:35:14.224Z,8.97
2018-11-06T05:37:42.465Z,8.97
2018-11-06T05:42:56.534Z,9.01
2018-11-06T05:45:24.782Z,9.00
2018-11-06T05:47:52.873Z,8.95
2018-11-06T05:50:21.040Z,8.99
2018-11-06T05:52:49.238Z,8.96
2018-11-06T05:55:17.404Z,8.87
2018-11-06T05:57:45.684Z,8.97
2018-11-06T06:00:13.915Z,8.90
2018-11-06T06:02:42.023Z,8.95
2018-11-06T06:05:10.215Z,8.96
2018-11-06T06:07:38.373Z,8.97
2018-11-06T06:10:06.955Z,9.01
2018-11-06T06:12:35.381Z,8.89
2018-11-06T06:15:03.624Z,8.89
2018-11-06T06:17:31.767Z,8.91
2018-11-06T06:19:59.883Z,9.03
2018-11-06T06:22:28.013Z,8.98
2018-11-06T06:24:59.544Z,8.98
2018-11-06T06:27:29.290Z,8.89
2018-11-06T06:29:57.542Z,8.99
2018-11-06T06:32:25.727Z,8.94
2018-11-06T06:34:53.917Z,9.05
2018-11-06T06:37:22.031Z,9.03
2018-11-06T06:39:50.293Z,9.08
2018-11-06T06:42:18.494Z,9.01
2018-11-06T06:44:46.643Z,9.04
2018-11-06T06:47:14.854Z,9.10
2018-11-06T06:49:43.286Z,9.04
2018-11-06T06:52:11.524Z,9.16
2018-11-06T06:54:39.835Z,9.23
2018-11-06T06:57:07.910Z,9.28
2018-11-06T06:59:36.077Z,9.30
2018-11-06T07:02:04.498Z,9.24
2018-11-06T07:04:32.749Z,9.42
2018-11-06T07:07:01.036Z,9.36
2018-11-06T07:09:29.310Z,9.50
2018-11-06T07:11:57.552Z,9.47
2018-11-06T07:14:25.776Z,9.54
2018-11-06T07:16:53.980Z,9.58
2018-11-06T07:19:22.160Z,9.68
2018-11-06T07:21:50.440Z,9.65
2018-11-06T07:24:18.966Z,9.76
2018-11-06T07:26:47.126Z,9.84
2018-11-06T07:29:15.298Z,9.89
2018-11-06T07:31:43.460Z,9.88
2018-11-06T07:34:11.776Z,9.84
2018-11-06T07:36:39.977Z,10.00
2018-11-06T07:39:09.857Z,10.05
2018-11-06T07:41:38.508Z,10.07
2018-11-06T07:44:06.795Z,10.24
2018-11-06T07:46:35.949Z,10.23
2018-11-06T07:49:04.138Z,10.31
2018-11-06T07:51:32.394Z,10.31
2018-11-06T07:54:00.612Z,10.42
2018-11-06T07:56:28.840Z,10.53
2018-11-06T07:58:57.040Z,10.58
2018-11-06T08:01:25.264Z,10.51
2018-11-06T08:03:53.522Z,10.70
2018-11-06T08:06:21.767Z,10.69
2018-11-06T08:08:49.977Z,10.82
2018-11-06T08:11:18.118Z,10.93
2018-11-06T08:13:46.328Z,11.02
2018-11-06T08:16:14.534Z,11.22
2018-11-06T08:18:42.881Z,11.22
2018-11-06T08:21:11.048Z,11.20
2018-11-06T08:23:39.282Z,11.32
2018-11-06T08:26:07.558Z,11.44
2018-11-06T08:28:35.743Z,11.36
2018-11-06T08:31:04.155Z,11.48
2018-11-06T08:33:32.216Z,11.47
2018-11-06T08:36:00.388Z,11.48
2018-11-06T08:38:28.545Z,11.56
2018-11-06T08:40:56.842Z,11.68
2018-11-06T08:43:25.126Z,11.77
2018-11-06T08:45:53.522Z,11.71
2018-11-06T08:48:21.644Z,11.76
2018-11-06T08:50:49.894Z,11.84
2018-11-06T08:53:18.115Z,11.93
2018-11-06T08:55:46.612Z,12.07
2018-11-06T08:58:14.828Z,12.07
2018-11-06T09:00:42.998Z,12.13
2018-11-06T09:03:11.172Z,12.21
2018-11-06T09:05:39.348Z,12.25
2018-11-06T09:08:07.535Z,12.27
2018-11-06T09:10:35.778Z,12.36
2018-11-06T09:13:03.948Z,12.37
2018-11-06T09:15:32.090Z,12.55
2018-11-06T09:18:00.273Z,12.55
2018-11-06T09:20:28.472Z,12.57
2018-11-06T09:22:56.758Z,12.59
2018-11-06T09:25:24.919Z,12.71
2018-11-06T09:27:53.137Z,12.67
2018-11-06T09:30:21.412Z,12.80
2018-11-06T09:32:49.594Z,12.92
2018-11-06T09:35:17.770Z,13.03
2018-11-06T09:37:46.312Z,12.99
2018-11-06T09:40:15.963Z,13.04
2018-11-06T09:42:44.185Z,13.04
2018-11-06T09:45:13.204Z,13.06
2018-11-06T09:47:41.396Z,13.18
2018-11-06T09:50:11.880Z,13.23
2018-11-06T09:52:40.205Z,13.28
2018-11-06T09:55:08.411Z,13.36
2018-11-06T09:57:36.542Z,13.34
2018-11-06T10:00:07.539Z,13.43
2018-11-06T10:02:35.670Z,13.49
2018-11-06T10:05:03.888Z,13.55
2018-11-06T10:07:32.032Z,13.60
2018-11-06T10:10:00.245Z,13.55
2018-11-06T10:12:28.409Z,13.62
2018-11-06T10:14:56.578Z,13.62
2018-11-06T10:17:24.737Z,13.71
2018-11-06T10:19:52.850Z,13.71
2018-11-06T10:22:21.012Z,13.74
2018-11-06T10:24:49.239Z,13.74
2018-11-06T10:27:17.460Z,14.01
2018-11-06T10:29:45.621Z,14.00
2018-11-06T10:32:13.841Z,14.09
2018-11-06T10:34:42.015Z,14.05
2018-11-06T10:37:10.368Z,14.10
2018-11-06T10:39:38.725Z,14.09
2018-11-06T10:42:06.870Z,14.14
2018-11-06T10:44:35.357Z,14.16
2018-11-06T10:47:03.531Z,14.24
2018-11-06T10:49:31.717Z,14.25
2018-11-06T10:52:00.238Z,14.32
2018-11-06T10:54:28.404Z,14.44
2018-11-06T10:56:56.535Z,14.62
2018-11-06T10:59:24.787Z,14.55
2018-11-06T11:01:58.345Z,14.52
2018-11-06T11:04:27.540Z,14.65
2018-11-06T11:06:55.706Z,14.69
2018-11-06T11:09:23.891Z,14.71
2018-11-06T11:11:52.200Z,14.84
2018-11-06T11:14:20.401Z,14.96
2018-11-06T11:16:48.568Z,14.94
2018-11-06T11:19:16.721Z,15.00
2018-11-06T11:21:44.896Z,15.02
2018-11-06T11:24:13.109Z,15.02
2018-11-06T11:26:41.435Z,15.07
2018-11-06T11:29:09.619Z,15.20
2018-11-06T11:31:37.840Z,15.34
2018-11-06T11:34:06.160Z,15.38
2018-11-06T11:36:34.322Z,15.32
2018-11-06T11:39:02.598Z,15.36
2018-11-06T11:41:30.775Z,15.44
2018-11-06T11:43:59.031Z,15.53
2018-11-06T11:46:27.273Z,15.52
2018-11-06T11:48:55.536Z,15.53
2018-11-06T11:51:23.715Z,15.49
2018-11-06T11:53:51.983Z,15.61
2018-11-06T11:56:20.239Z,15.75
2018-11-06T11:58:48.442Z,15.72
2018-11-06T12:01:16.674Z,15.76
2018-11-06T12:03:44.915Z,15.64
2018-11-06T12:06:13.160Z,15.75
2018-11-06T12:08:41.343Z,15.66
2018-11-06T12:11:09.584Z,15.80
2018-11-06T12:13:37.743Z,15.91
2018-11-06T12:16:05.939Z,15.89
2018-11-06T12:18:34.161Z,15.81
2018-11-06T12:21:02.399Z,15.91
2018-11-06T12:23:30.601Z,15.85
2018-11-06T12:25:58.783Z,15.88
2018-11-06T12:28:26.967Z,15.85
2018-11-06T12:30:55.096Z,15.78
2018-11-06T12:33:23.273Z,15.82
2018-11-06T12:35:51.444Z,15.85
2018-11-06T12:38:19.592Z,15.87
2018-11-06T12:40:47.780Z,15.95
2018-11-06T12:43:15.970Z,15.80
2018-11-06T12:45:44.118Z,15.73
2018-11-06T12:48:12.261Z,15.87
2018-11-06T12:50:40.441Z,15.90
2018-11-06T12:53:08.645Z,15.90
2018-11-06T12:55:36.854Z,15.95
2018-11-06T12:58:05.447Z,15.88
2018-11-06T13:00:33.677Z,15.96
2018-11-06T13:03:01.843Z,15.91
2018-11-06T13:05:30.187Z,15.98
2018-11-06T13:07:58.513Z,15.85
2018-11-06T13:10:26.748Z,15.74
2018-11-06T13:12:54.889Z,15.66
2018-11-06T13:15:23.099Z,15.56
2018-11-06T13:17:51.270Z,15.63
2018-11-06T13:20:19.389Z,15.61
2018-11-06T13:22:47.586Z,15.69
2018-11-06T13:25:15.784Z,15.65
2018-11-06T13:27:44.019Z,15.53
2018-11-06T13:30:15.687Z,15.65
2018-11-06T13:32:44.738Z,15.60
2018-11-06T13:35:12.909Z,15.56
2018-11-06T13:37:41.182Z,15.66
2018-11-06T13:40:13.796Z,15.70
2018-11-06T13:42:42.329Z,15.73
2018-11-06T13:45:13.832Z,15.62
2018-11-06T13:47:41.956Z,15.78
2018-11-06T13:50:10.192Z,15.66
2018-11-06T13:52:38.559Z,15.64
2018-11-06T13:55:08.031Z,15.55
2018-11-06T13:57:36.268Z,15.53
2018-11-06T14:00:06.875Z,15.57
2018-11-06T14:02:35.147Z,15.49
2018-11-06T14:05:03.293Z,15.58
2018-11-06T14:07:31.561Z,15.64
2018-11-06T14:09:59.768Z,15.52
2018-11-06T14:12:27.898Z,15.53
2018-11-06T14:14:58.909Z,15.46
2018-11-06T14:17:27.075Z,15.34
2018-11-06T14:19:55.345Z,15.36
2018-11-06T14:22:23.526Z,15.32
2018-11-06T14:24:51.851Z,15.36
2018-11-06T14:27:20.170Z,15.52
2018-11-06T14:29:48.583Z,15.59
2018-11-06T14:32:16.787Z,15.70
2018-11-06T14:34:44.919Z,15.52
2018-11-06T14:37:13.087Z,15.55
2018-11-06T14:39:41.343Z,15.56
2018-11-06T14:42:09.596Z,15.54
2018-11-06T14:44:38.067Z,15.43
2018-11-06T14:47:06.298Z,15.40
2018-11-06T14:49:34.467Z,15.47
2018-11-06T14:52:02.593Z,15.40
2018-11-06T14:54:30.783Z,15.29
2018-11-06T14:56:59.011Z,15.22
2018-11-06T14:59:27.327Z,15.06
2018-11-06T15:01:55.599Z,14.95
2018-11-06T15:04:23.833Z,14.85
2018-11-06T15:06:52.014Z,14.84
2018-11-06T15:09:20.222Z,14.73
2018-11-06T15:11:48.448Z,14.68
2018-11-06T15:14:16.668Z,14.83
2018-11-06T15:16:44.849Z,14.71
2018-11-06T15:19:13.168Z,14.78
2018-11-06T15:21:41.423Z,14.78
2018-11-06T15:24:09.614Z,14.86
2018-11-06T15:26:38.175Z,14.68
2018-11-06T15:29:06.959Z,14.59
2018-11-06T15:31:35.174Z,14.61
2018-11-06T15:34:03.503Z,14.79
2018-11-06T15:36:31.710Z,14.77
2018-11-06T15:38:59.923Z,14.74
2018-11-06T15:41:28.166Z,14.71
2018-11-06T15:43:56.390Z,14.55
2018-11-06T15:46:24.599Z,14.37
2018-11-06T15:48:52.842Z,14.39
2018-11-06T15:51:21.220Z,14.25
2018-11-06T15:53:49.471Z,14.09
2018-11-06T15:56:17.644Z,14.03
2018-11-06T15:58:45.881Z,14.17
2018-11-06T16:01:15.124Z,14.35
2018-11-06T16:03:43.299Z,14.29
2018-11-06T16:06:11.537Z,14.20
2018-11-06T16:08:39.780Z,14.04
2018-11-06T16:11:08.072Z,13.96
2018-11-06T16:13:36.355Z,13.73
2018-11-06T16:16:05.041Z,13.55
2018-11-06T16:18:33.261Z,13.59
2018-11-06T16:21:01.478Z,13.97
2018-11-06T16:23:29.617Z,13.92
2018-11-06T16:25:57.762Z,14.02
2018-11-06T16:28:25.914Z,14.02
2018-11-06T16:30:54.142Z,13.94
2018-11-06T16:33:22.307Z,13.89
2018-11-06T16:35:50.502Z,13.80
2018-11-06T16:38:18.644Z,13.65
2018-11-06T16:40:46.772Z,13.74
2018-11-06T16:43:14.970Z,13.70
2018-11-06T16:45:43.177Z,13.67
2018-11-06T16:48:11.420Z,13.57
2018-11-06T16:50:39.559Z,13.67
2018-11-06T16:53:07.709Z,13.60
2018-11-06T16:55:35.858Z,13.74
2018-11-06T16:58:03.987Z,13.59
2018-11-06T17:00:32.149Z,13.56
2018-11-06T17:03:00.412Z,13.48
2018-11-06T17:05:28.596Z,13.43
2018-11-06T17:07:56.809Z,13.37
2018-11-06T17:10:25.032Z,13.39
2018-11-06T17:12:53.243Z,13.48
2018-11-06T17:15:22.448Z,13.38
2018-11-06T17:17:51.788Z,13.41
2018-11-06T17:20:20.466Z,13.42
2018-11-06T17:22:48.687Z,13.39
2018-11-06T17:25:18.059Z,13.38
2018-11-06T17:27:46.286Z,13.38
2018-11-06T17:30:15.748Z,13.37
2018-11-06T17:32:44.252Z,13.30
2018-11-06T17:35:14.025Z,13.12
2018-11-06T17:37:42.436Z,13.06
2018-11-06T17:40:13.475Z,13.07
2018-11-06T17:42:41.947Z,13.06
2018-11-06T17:45:12.610Z,13.11
2018-11-06T17:47:41.246Z,12.94
2018-11-06T17:50:10.809Z,12.90
2018-11-06T17:52:38.979Z,12.79
2018-11-06T17:55:08.105Z,12.85
2018-11-06T17:57:36.983Z,12.78
2018-11-06T18:00:07.420Z,12.82
2018-11-06T18:02:35.638Z,12.73
2018-11-06T18:05:03.873Z,12.70
2018-11-06T18:07:32.077Z,12.73
2018-11-06T18:10:00.273Z,12.59
2018-11-06T18:12:28.662Z,12.59
2018-11-06T18:14:56.857Z,12.48
2018-11-06T18:17:25.213Z,12.53
2018-11-06T18:19:53.455Z,12.38
2018-11-06T18:22:21.710Z,12.43
2018-11-06T18:24:49.951Z,12.32
2018-11-06T18:27:18.146Z,12.55
2018-11-06T18:29:46.436Z,12.53
2018-11-06T18:32:14.773Z,12.40
2018-11-06T18:34:42.904Z,12.29
2018-11-06T18:37:11.092Z,12.32
2018-11-06T18:39:39.262Z,12.37
2018-11-06T18:42:07.516Z,12.21
2018-11-06T18:44:35.672Z,12.17
2018-11-06T18:47:03.840Z,12.17
2018-11-06T18:49:32.096Z,12.14
2018-11-06T18:52:00.330Z,12.25
2018-11-06T18:54:28.618Z,12.17
2018-11-06T18:56:56.822Z,12.05
2018-11-06T18:59:25.242Z,12.16
2018-11-06T19:01:53.455Z,12.03
2018-11-06T19:04:21.737Z,12.07
2018-11-06T19:06:49.942Z,11.95
2018-11-06T19:09:18.918Z,11.91
2018-11-06T19:11:47.090Z,11.99
2018-11-06T19:14:15.379Z,12.03
2018-11-06T19:16:43.581Z,11.97
2018-11-06T19:19:11.836Z,12.05
2018-11-06T19:21:40.090Z,11.96
2018-11-06T19:24:08.357Z,11.87
2018-11-06T19:26:36.692Z,11.82
2018-11-06T19:29:05.248Z,11.80
2018-11-06T19:31:33.522Z,11.77
2018-11-06T19:34:01.774Z,11.70
2018-11-06T19:36:30.152Z,11.79
2018-11-06T19:38:58.410Z,11.64
2018-11-06T19:41:26.662Z,11.77
2018-11-06T19:43:54.878Z,11.65
2018-11-06T19:46:23.184Z,11.73
2018-11-06T19:48:52.291Z,11.52
2018-11-06T19:51:20.503Z,11.42
2018-11-06T19:53:48.895Z,11.33
2018-11-06T19:56:17.188Z,11.25
2018-11-06T19:58:45.481Z,11.14
2018-11-06T20:01:13.985Z,11.23
2018-11-06T20:03:42.872Z,11.32
2018-11-06T20:06:11.359Z,11.30
2018-11-06T20:08:40.288Z,11.14
2018-11-06T20:11:08.752Z,11.11
2018-11-06T20:13:36.991Z,10.95
2018-11-06T20:16:05.527Z,10.90
2018-11-06T20:18:34.905Z,10.84
2018-11-06T20:21:03.359Z,10.83
2018-11-06T20:23:33.004Z,10.70
2018-11-06T20:26:01.355Z,10.82
2018-11-06T20:28:29.688Z,10.64
2018-11-06T20:30:58.912Z,10.78
2018-11-06T20:33:27.351Z,10.83
2018-11-06T20:35:55.805Z,10.85
2018-11-06T20:38:24.332Z,10.87
2018-11-06T20:40:53.964Z,10.98
2018-11-06T20:43:22.637Z,11.13
2018-11-06T20:45:50.990Z,11.09
2018-11-06T20:48:19.611Z,11.11
2018-11-06T20:50:47.910Z,10.93
2018-11-06T20:53:16.909Z,11.09
2018-11-06T20:55:46.446Z,10.94
2018-11-06T20:58:14.817Z,10.92
2018-11-06T21:00:43.191Z,10.78
2018-11-06T21:03:11.487Z,10.72
2018-11-06T21:05:39.730Z,10.78
2018-11-06T21:08:08.091Z,10.62
2018-11-06T21:10:36.364Z,10.69
2018-11-06T21:13:05.227Z,10.70
2018-11-06T21:15:33.841Z,10.76
2018-11-06T21:18:02.305Z,10.65
2018-11-06T21:20:30.598Z,10.58
2018-11-06T21:22:58.852Z,10.57
2018-11-06T21:25:28.792Z,10.64
2018-11-06T21:27:57.242Z,10.57
2018-11-06T21:30:25.486Z,10.52
2018-11-06T21:32:54.312Z,10.60
2018-11-06T21:35:22.903Z,10.48
2018-11-06T21:37:51.480Z,10.53
2018-11-06T21:40:20.912Z,10.50
2018-11-06T21:42:49.548Z,10.42
2018-11-06T21:45:19.166Z,10.44
2018-11-06T21:47:48.352Z,10.57
2018-11-06T21:50:17.945Z,10.41
2018-11-06T21:52:47.090Z,10.44
2018-11-06T21:55:16.651Z,10.36
2018-11-06T21:57:44.852Z,10.07
2018-11-06T22:00:16.858Z,10.13
2018-11-06T22:02:45.042Z,10.14
2018-11-06T22:05:14.572Z,10.20
2018-11-06T22:07:43.132Z,10.22
2018-11-06T22:10:13.638Z,10.22
2018-11-06T22:12:42.599Z,10.22
2018-11-06T22:15:12.017Z,10.19
2018-11-06T22:17:40.652Z,10.05
2018-11-06T22:20:10.582Z,10.06
2018-11-06T22:22:38.756Z,10.16
2018-11-06T22:25:07.132Z,9.98
2018-11-06T22:27:35.589Z,9.95
2018-11-06T22:30:03.895Z,9.79
2018-11-06T22:32:32.034Z,9.93
2018-11-06T22:35:00.219Z,9.99
2018-11-06T22:37:28.468Z,10.10
2018-11-06T22:39:56.620Z,10.12
2018-11-06T22:42:24.830Z,10.17
2018-11-06T22:44:53.016Z,10.01
2018-11-06T22:47:21.176Z,10.08
2018-11-06T22:49:49.330Z,10.09
2018-11-06T22:52:17.445Z,10.00
2018-11-06T22:54:52.072Z,10.08
2018-11-06T22:57:20.209Z,10.13
2018-11-06T22:59:48.445Z,10.05
2018-11-06T23:02:16.624Z,10.02
2018-11-06T23:04:44.907Z,10.00
2018-11-06T23:07:18.620Z,9.95
2018-11-06T23:09:46.673Z,9.90
2018-11-06T23:12:14.905Z,9.80
2018-11-06T23:14:43.079Z,9.90
2018-11-06T23:17:11.349Z,9.85
2018-11-06T23:19:39.651Z,9.85
2018-11-06T23:22:07.804Z,9.89
2018-11-06T23:24:35.963Z,9.84
2018-11-06T23:27:04.225Z,9.96
2018-11-06T23:29:32.352Z,9.99
2018-11-06T23:32:00.514Z,10.09
2018-11-06T23:34:28.645Z,10.03
2018-11-06T23:36:56.958Z,9.98
2018-11-06T23:39:25.142Z,9.86
2018-11-06T23:41:53.315Z,10.00
2018-11-06T23:44:21.451Z,9.80
2018-11-06T23:46:49.664Z,9.96
2018-11-06T23:49:18.069Z,9.79
2018-11-06T23:51:46.419Z,9.86
2018-11-06T23:54:14.597Z,9.76
2018-11-06T23:56:42.769Z,9.67
2018-11-06T23:59:10.899Z,9.60
